Time;durP1;ratioP1;P1;durP2;ratioP2;P2;SDS_P1;SDS_P2;PMS_P1;PMS_P2;Temp;Humidity;BMP_temperature;BMP_pressure;BME280_temperature;BME280_humidity;BME280_pressure;Samples;Min_cycle;Max_cycle;Signal;HPM_P1;HPM_P2
2022/05/05 00:02:08;;;;;;;17.88;7.15;;;;;;;6.96;100.00;100468.75;5039388;28;20022;-82
2022/05/05 00:04:33;;;;;;;11.95;6.80;;;;;;;6.84;100.00;100474.19;5039928;28;20052;-83
2022/05/05 00:07:01;;;;;;;17.00;6.78;;;;;;;6.80;100.00;100479.53;5039973;28;20478;-83
2022/05/05 00:09:27;;;;;;;11.98;6.50;;;;;;;6.84;100.00;100475.09;5039814;28;20025;-83
2022/05/05 00:14:37;;;;;;;;;;;;;;;6.82;100.00;100471.56;5040906;28;20093;-83
2022/05/05 00:17:06;;;;;;;9.70;6.03;;;;;;;6.81;100.00;100470.69;5040820;28;19948;-83
2022/05/05 00:19:35;;;;;;;12.52;6.18;;;;;;;6.82;100.00;100466.28;5040030;28;20025;-82
2022/05/05 00:22:02;;;;;;;12.70;5.97;;;;;;;6.82;100.00;100467.16;5038815;28;20112;-82
2022/05/05 00:24:27;;;;;;;11.88;5.97;;;;;;;6.85;100.00;100465.34;5018149;28;20060;-81
2022/05/05 00:26:53;;;;;;;10.65;6.00;;;;;;;6.86;100.00;100459.13;5018053;28;20060;-81
2022/05/05 00:29:18;;;;;;;14.38;6.95;;;;;;;6.90;100.00;100458.22;5037508;28;20475;-82
2022/05/05 00:31:44;;;;;;;12.63;6.43;;;;;;;6.93;100.00;100456.38;5036683;28;20375;-82
2022/05/05 00:34:10;;;;;;;14.38;6.00;;;;;;;7.00;100.00;100464.28;5018567;28;20389;-82
2022/05/05 00:36:35;;;;;;;13.57;6.30;;;;;;;7.00;100.00;100465.19;5036368;28;20021;-83
2022/05/05 00:39:01;;;;;;;11.60;6.10;;;;;;;7.08;100.00;100472.16;5018901;28;20500;-83
2022/05/05 00:41:26;;;;;;;13.75;6.40;;;;;;;7.10;100.00;100465.03;5018516;28;20116;-82
2022/05/05 00:43:52;;;;;;;12.65;6.70;;;;;;;7.09;100.00;100463.28;5018935;28;20478;-82
2022/05/05 00:46:17;;;;;;;11.95;6.47;;;;;;;7.13;100.00;100465.00;5036757;28;20021;-83
2022/05/05 00:48:43;;;;;;;13.00;6.88;;;;;;;7.20;100.00;100461.38;5018451;28;20025;-83
2022/05/05 00:51:09;;;;;;;9.88;6.00;;;;;;;7.20;100.00;100463.16;5018596;28;20124;-82
2022/05/05 00:53:34;;;;;;;8.88;6.03;;;;;;;7.12;100.00;100472.09;5036847;28;20061;-82
2022/05/05 00:56:06;;;;;;;11.80;6.63;;;;;;;7.06;100.00;100469.50;5057792;22;20041;-79
2022/05/05 00:58:31;;;;;;;12.18;6.45;;;;;;;6.94;100.00;100467.88;5035870;28;20026;-79
2022/05/05 01:01:03;;;;;;;12.40;6.45;;;;;;;6.88;100.00;100475.94;5035500;28;20028;-79
2022/05/05 01:03:30;;;;;;;12.27;6.25;;;;;;;7.00;100.00;100470.47;5017716;28;20040;-80
2022/05/05 01:05:57;;;;;;;11.73;6.60;;;;;;;7.04;100.00;100480.16;5017004;28;20112;-79
2022/05/05 01:08:23;;;;;;;13.93;6.60;;;;;;;7.00;100.00;100478.44;5034831;28;20029;-79
2022/05/05 01:10:48;;;;;;;16.08;6.70;;;;;;;7.03;100.00;100483.72;5034179;28;20040;-79
2022/05/05 01:13:13;;;;;;;13.73;6.15;;;;;;;7.10;100.00;100475.66;5036441;28;20382;-80
2022/05/05 01:15:39;;;;;;;14.15;6.82;;;;;;;7.15;100.00;100476.50;5019641;28;20021;-81
2022/05/05 01:18:04;;;;;;;13.63;7.10;;;;;;;7.14;100.00;100486.22;5020499;28;20480;-81
2022/05/05 01:20:30;;;;;;;15.23;6.78;;;;;;;7.08;100.00;100485.44;5038160;28;20044;-81
2022/05/05 01:22:55;;;;;;;13.10;6.57;;;;;;;7.12;100.00;100480.06;5021668;28;20025;-79
2022/05/05 01:28:13;;;;;;;14.93;7.22;;;;;;;7.01;100.00;100488.16;5036420;28;20027;-79
2022/05/05 01:30:48;;;;;;;13.98;7.03;;;;;;;6.92;100.00;100493.59;5035191;28;20028;-79
2022/05/05 01:33:21;;;;;;;12.77;6.80;;;;;;;6.83;100.00;100483.94;5017192;28;20021;-79
2022/05/05 01:35:48;;;;;;;14.18;7.43;;;;;;;6.69;100.00;100487.66;5035364;28;20379;-80
2022/05/05 01:38:19;;;;;;;15.45;8.18;;;;;;;6.64;100.00;100488.56;5017044;28;20437;-79
2022/05/05 01:40:46;;;;;;;14.15;7.70;;;;;;;6.61;100.00;100486.84;5017199;28;20024;-79
2022/05/05 01:43:13;;;;;;;13.48;7.63;;;;;;;6.67;100.00;100488.56;5016533;28;20029;-79
2022/05/05 01:45:38;;;;;;;12.90;8.05;;;;;;;6.73;100.00;100487.59;5016525;28;20022;-79
2022/05/05 01:48:04;;;;;;;14.13;7.28;;;;;;;6.71;100.00;100490.28;5016304;28;20078;-79
2022/05/05 01:50:33;;;;;;;17.10;8.27;;;;;;;6.74;100.00;100490.25;5035289;28;20101;-81
2022/05/05 01:53:00;;;;;;;17.08;7.75;;;;;;;6.63;100.00;100497.41;5038101;28;20042;-81
2022/05/05 01:55:26;;;;;;;13.57;7.55;;;;;;;6.65;100.00;100495.66;5038447;28;20109;-81
2022/05/05 01:57:51;;;;;;;13.68;8.27;;;;;;;6.63;100.00;100502.72;5039042;28;20022;-79
2022/05/05 02:00:18;;;;;;;13.15;7.32;;;;;;;6.70;100.00;100504.44;5019795;28;20389;-80
2022/05/05 02:02:44;;;;;;;15.05;7.15;;;;;;;6.72;100.00;100507.97;5034237;28;20032;-79
2022/05/05 02:05:11;;;;;;;15.45;8.73;;;;;;;6.69;100.00;100500.03;5016327;28;20021;-79
2022/05/05 02:07:37;;;;;;;16.13;8.15;;;;;;;6.74;100.00;100502.63;5033907;28;20459;-80
2022/05/05 02:10:04;;;;;;;13.27;8.38;;;;;;;6.72;100.00;100499.13;5016524;28;20036;-79
2022/05/05 02:12:31;;;;;;;15.10;8.23;;;;;;;6.75;100.00;100502.59;5033915;28;20028;-79
2022/05/05 02:14:57;;;;;;;13.43;8.57;;;;;;;6.62;100.00;100493.03;5016445;28;20057;-80
2022/05/05 02:17:23;;;;;;;12.88;8.63;;;;;;;6.72;100.00;100492.03;5033758;28;20048;-79
2022/05/05 02:19:48;;;;;;;13.93;9.10;;;;;;;6.72;100.00;100494.69;5015818;28;20026;-79
2022/05/05 02:22:14;;;;;;;16.95;8.20;;;;;;;6.67;100.00;100502.72;5032996;28;20116;-79
2022/05/05 02:24:40;;;;;;;17.23;8.10;;;;;;;6.82;100.00;100503.44;5033513;28;20036;-79
2022/05/05 02:27:05;;;;;;;11.80;7.72;;;;;;;6.86;100.00;100504.25;5015297;28;20025;-79
2022/05/05 02:29:31;;;;;;;18.58;8.07;;;;;;;6.89;100.00;100498.91;5018520;28;20021;-81
2022/05/05 02:31:56;;;;;;;13.57;7.75;;;;;;;6.92;100.00;100496.25;5037865;28;20056;-81
2022/05/05 02:34:21;;;;;;;15.55;7.43;;;;;;;6.90;100.00;100500.69;5019997;28;20022;-81
2022/05/05 02:39:30;;;;;;;15.63;8.23;;;;;;;6.97;100.00;100509.44;5034834;28;20116;-79
2022/05/05 02:41:56;;;;;;;11.82;7.60;;;;;;;6.96;100.00;100508.56;5016193;28;20029;-79
2022/05/05 02:44:21;;;;;;;13.57;7.93;;;;;;;6.90;100.00;100506.00;5016818;28;20033;-80
2022/05/05 02:46:46;;;;;;;16.25;8.90;;;;;;;6.86;100.00;100502.50;5034357;28;20025;-79
2022/05/05 02:49:13;;;;;;;14.10;8.38;;;;;;;6.90;100.00;100501.56;5034345;28;20540;-79
2022/05/05 02:51:38;;;;;;;15.18;8.57;;;;;;;6.95;100.00;100503.28;5034437;28;20018;-79
2022/05/05 02:56:48;;;;;;;14.27;8.10;;;;;;;6.71;100.00;100506.19;5034078;28;20084;-79
2022/05/05 02:59:13;;;;;;;17.58;7.97;;;;;;;6.78;100.00;100507.88;5033704;28;20017;-79
2022/05/05 03:01:39;;;;;;;12.38;8.63;;;;;;;6.73;100.00;100508.81;5033595;28;20096;-79
2022/05/05 03:04:04;;;;;;;18.77;9.32;;;;;;;6.74;100.00;100507.94;5015640;28;20379;-79
2022/05/05 03:06:29;;;;;;;13.43;8.10;;;;;;;6.80;100.00;100500.78;5017561;28;20029;-81
2022/05/05 03:08:55;;;;;;;13.07;8.45;;;;;;;6.84;100.00;100500.75;5037911;28;20650;-81
2022/05/05 03:11:20;;;;;;;15.88;8.80;;;;;;;6.85;100.00;100502.53;5020949;28;20029;-81
2022/05/05 03:13:45;;;;;;;15.45;8.60;;;;;;;6.87;100.00;100506.03;5045129;28;20081;-81
2022/05/05 03:16:11;;;;;;;15.98;9.63;;;;;;;6.88;100.00;100502.50;5016628;28;20060;-80
2022/05/05 03:18:40;;;;;;;14.88;9.20;;;;;;;6.85;100.00;100506.06;5034506;28;20025;-79
2022/05/05 03:21:06;;;;;;;15.68;8.85;;;;;;;6.78;100.00;100513.19;5016411;28;20022;-79
2022/05/05 03:23:31;;;;;;;18.08;9.73;;;;;;;6.65;100.00;100503.63;5016504;28;20164;-79
2022/05/05 03:25:56;;;;;;;16.33;9.20;;;;;;;6.66;100.00;100500.06;5016384;28;20395;-80
2022/05/05 03:28:22;;;;;;;19.45;9.60;;;;;;;6.71;100.00;100498.22;5016292;28;20103;-79
2022/05/05 03:30:47;;;;;;;16.73;9.10;;;;;;;6.58;100.00;100497.47;5033664;28;20108;-79
2022/05/05 03:33:12;;;;;;;17.85;10.57;;;;;;;6.44;100.00;100502.94;5017761;28;20474;-79
2022/05/05 03:35:38;;;;;;;17.85;10.18;;;;;;;6.42;100.00;100504.69;5037126;28;20109;-79
2022/05/05 03:38:04;;;;;;;17.08;9.15;;;;;;;6.55;100.00;100500.16;5037078;28;20497;-79
2022/05/05 03:40:29;;;;;;;19.27;10.25;;;;;;;6.58;100.00;100501.00;5019015;28;20025;-78
2022/05/05 03:42:54;;;;;;;19.10;9.88;;;;;;;6.51;100.00;100509.94;5019075;28;20076;-78
2022/05/05 03:45:20;;;;;;;15.10;9.90;;;;;;;6.37;100.00;100502.97;5022562;28;20083;-80
2022/05/05 03:47:46;;;;;;;17.10;9.82;;;;;;;6.33;100.00;100511.88;5024727;28;20516;-80
2022/05/05 03:50:11;;;;;;;17.65;10.18;;;;;;;6.37;100.00;100512.69;5021476;28;20081;-78
2022/05/05 03:52:37;;;;;;;18.08;9.90;;;;;;;6.33;100.00;100517.16;5038662;28;20025;-78
2022/05/05 03:55:02;;;;;;;17.85;9.73;;;;;;;6.31;100.00;100503.03;5039184;28;20482;-78
2022/05/05 03:57:28;;;;;;;16.80;9.57;;;;;;;6.43;100.00;100511.78;5021453;28;20051;-79
2022/05/05 03:59:53;;;;;;;15.88;9.77;;;;;;;6.32;100.00;100515.41;5022093;28;20504;-77
2022/05/05 04:02:18;;;;;;;20.08;10.68;;;;;;;6.27;100.00;100519.84;5022426;28;20159;-79
2022/05/05 04:04:43;;;;;;;17.73;10.00;;;;;;;6.28;100.00;100520.75;5023161;28;20033;-77
2022/05/05 04:07:09;;;;;;;17.48;9.80;;;;;;;6.32;100.00;100523.34;5021836;28;20052;-78
2022/05/05 04:09:34;;;;;;;20.65;10.73;;;;;;;6.34;100.00;100524.22;5020172;28;20064;-77
2022/05/05 04:12:00;;;;;;;16.00;9.95;;;;;;;6.39;100.00;100524.16;5020426;28;20028;-79
2022/05/05 04:14:25;;;;;;;17.65;11.40;;;;;;;6.53;100.00;100524.06;5020528;28;20033;-77
2022/05/05 04:16:51;;;;;;;16.77;10.23;;;;;;;6.43;100.00;100523.25;5020454;28;20405;-78
2022/05/05 04:19:16;;;;;;;20.02;11.02;;;;;;;6.33;100.00;100522.47;5038517;28;20023;-77
2022/05/05 04:21:41;;;;;;;18.67;11.10;;;;;;;6.32;100.00;100535.72;5037551;28;20032;-80
2022/05/05 04:24:07;;;;;;;19.08;10.65;;;;;;;6.28;100.00;100534.00;5026457;28;20036;-80
2022/05/05 04:26:32;;;;;;;17.35;11.05;;;;;;;6.30;100.00;100538.41;5025975;28;20361;-78
2022/05/05 04:28:58;;;;;;;15.95;9.75;;;;;;;6.37;100.00;100537.44;5026490;28;20053;-78
2022/05/05 04:31:28;;;;;;;20.85;11.00;;;;;;;6.35;100.00;100539.25;5025346;28;20497;-78
2022/05/05 04:33:53;;;;;;;20.02;9.90;;;;;;;6.45;100.00;100539.16;5042570;28;20478;-79
2022/05/05 04:36:19;;;;;;;17.58;10.05;;;;;;;6.53;100.00;100539.97;5024419;28;20026;-80
2022/05/05 04:38:44;;;;;;;17.02;9.98;;;;;;;6.54;100.00;100547.06;5025591;28;20025;-78
2022/05/05 04:41:10;;;;;;;15.77;9.48;;;;;;;6.61;100.00;100536.38;5025431;28;20018;-78
2022/05/05 04:43:36;;;;;;;15.75;10.15;;;;;;;6.64;100.00;100541.66;5025561;28;20029;-78
2022/05/05 04:46:01;;;;;;;17.30;9.98;;;;;;;6.69;100.00;100542.47;5024370;28;20079;-78
2022/05/05 04:48:27;;;;;;;18.75;9.45;;;;;;;6.70;100.00;100546.91;5025646;28;20038;-78
2022/05/05 04:50:52;;;;;;;15.15;9.23;;;;;;;6.72;100.00;100544.22;5025925;28;20017;-78
2022/05/05 04:53:17;;;;;;;18.10;9.93;;;;;;;6.76;100.00;100557.44;5025342;28;20025;-78
2022/05/05 04:55:43;;;;;;;16.67;9.77;;;;;;;6.75;100.00;100554.81;5042250;28;20029;-78
2022/05/05 04:58:08;;;;;;;15.30;9.45;;;;;;;6.82;100.00;100549.44;5023721;28;20097;-78
2022/05/05 05:00:35;;;;;;;15.88;10.02;;;;;;;6.91;100.00;100556.41;5023849;28;20028;-78
2022/05/05 05:03:01;;;;;;;14.85;9.57;;;;;;;6.99;100.00;100558.09;5025246;28;20033;-79
2022/05/05 05:05:26;;;;;;;17.08;9.35;;;;;;;7.01;100.00;100557.19;5024943;28;20525;-79
2022/05/05 05:07:52;;;;;;;15.68;9.20;;;;;;;7.08;100.00;100570.41;5025046;28;20033;-79
2022/05/05 05:10:17;;;;;;;14.52;8.70;;;;;;;7.15;100.00;100575.63;5024399;28;20052;-78
2022/05/05 05:12:42;;;;;;;15.05;9.32;;;;;;;7.15;100.00;100583.59;5024627;28;20055;-79
2022/05/05 05:15:08;;;;;;;14.23;9.40;;;;;;;7.24;100.00;100585.25;5020089;28;20021;-76
2022/05/05 05:17:34;;;;;;;17.50;9.50;;;;;;;7.31;100.00;100582.56;5036769;28;20021;-76
2022/05/05 05:19:59;;;;;;;17.40;9.85;;;;;;;7.35;100.00;100584.25;5019176;28;20070;-76
2022/05/05 05:22:24;;;;;;;19.67;10.45;;;;;;;7.33;100.00;100589.59;5019576;28;20505;-76
2022/05/05 05:24:50;;;;;;;15.77;9.45;;;;;;;7.42;100.00;100587.75;5036460;28;20360;-76
2022/05/05 05:27:15;;;;;;;13.93;9.20;;;;;;;7.51;100.00;100584.97;5036937;28;20470;-77
2022/05/05 05:29:40;;;;;;;15.75;9.90;;;;;;;7.61;100.00;100588.38;5018625;28;20475;-77
2022/05/05 05:32:06;;;;;;;17.15;9.25;;;;;;;7.68;100.00;100598.03;5019098;28;20013;-76
2022/05/05 05:34:32;;;;;;;14.60;9.48;;;;;;;7.76;100.00;100602.34;5019251;28;20479;-76
2022/05/05 05:36:57;;;;;;;15.73;9.23;;;;;;;7.81;100.00;100596.09;5019001;28;20025;-77
2022/05/05 05:39:22;;;;;;;14.55;9.05;;;;;;;7.86;100.00;100600.47;5036335;28;20104;-78
2022/05/05 05:41:48;;;;;;;17.15;9.27;;;;;;;7.87;100.00;100600.44;5036351;28;20021;-76
2022/05/05 05:44:13;;;;;;;14.70;8.63;;;;;;;7.83;100.00;100604.06;5036346;28;20048;-77
2022/05/05 05:46:39;;;;;;;16.58;9.02;;;;;;;7.94;100.00;100607.44;5018239;28;20051;-78
2022/05/05 05:49:05;;;;;;;15.70;8.40;;;;;;;7.92;100.00;100609.25;5036249;28;20106;-78
2022/05/05 05:51:31;;;;;;;17.63;8.90;;;;;;;7.85;100.00;100609.34;5018523;28;20017;-78
2022/05/05 05:53:57;;;;;;;16.35;9.05;;;;;;;7.89;100.00;100611.94;5029042;22;20056;-86
2022/05/05 05:56:22;;;;;;;17.73;9.02;;;;;;;7.96;100.00;100620.72;5034725;28;20029;-86
2022/05/05 05:58:47;;;;;;;13.77;8.85;;;;;;;8.12;100.00;100616.03;5016288;28;20026;-86
2022/05/05 06:01:13;;;;;;;16.90;9.82;;;;;;;8.23;100.00;100618.56;5034304;28;20025;-86
2022/05/05 06:03:53;;;;;;;16.75;9.63;;;;;;;8.31;100.00;100625.53;5016625;28;20041;-86
2022/05/05 06:06:19;;;;;;;15.38;8.43;;;;;;;8.25;100.00;100622.06;5016192;28;20021;-83
2022/05/05 06:08:44;;;;;;;13.40;8.95;;;;;;;8.13;100.00;100633.78;5034121;28;20029;-85
2022/05/05 06:11:11;;;;;;;18.60;9.73;;;;;;;8.24;100.00;100635.41;5016526;28;20024;-84
2022/05/05 06:13:37;;;;;;;15.68;9.00;;;;;;;8.32;100.00;100630.84;5016199;28;20143;-86
2022/05/05 06:16:04;;;;;;;14.70;8.90;;;;;;;8.36;100.00;100627.22;5015985;28;20053;-85
2022/05/05 06:18:30;;;;;;;15.40;8.68;;;;;;;8.45;100.00;100633.31;5017442;28;20490;-85
2022/05/05 06:20:55;;;;;;;13.23;8.93;;;;;;;8.54;100.00;100641.16;5015960;28;20025;-85
2022/05/05 06:23:20;;;;;;;18.15;9.18;;;;;;;8.51;100.00;100649.19;5016147;28;20029;-83
2022/05/05 06:25:45;;;;;;;18.15;9.07;;;;;;;8.59;100.00;100642.00;5015889;28;20364;-85
2022/05/05 06:28:11;;;;;;;15.80;9.52;;;;;;;8.59;100.00;100639.34;5033753;28;20024;-85
2022/05/05 06:30:36;;;;;;;18.27;9.27;;;;;;;8.66;100.00;100636.59;5016269;28;20104;-83
2022/05/05 06:33:02;;;;;;;14.63;9.57;;;;;;;8.67;100.00;100633.00;5034215;28;20021;-85
2022/05/05 06:35:28;;;;;;;19.67;9.55;;;;;;;8.65;100.00;100637.47;5016157;28;20079;-84
2022/05/05 06:37:53;;;;;;;15.02;9.18;;;;;;;8.78;100.00;100646.13;5015835;28;20080;-85
2022/05/05 06:40:19;;;;;;;15.90;9.55;;;;;;;8.56;100.00;100650.00;5015804;28;20037;-85
2022/05/05 06:42:44;;;;;;;19.23;10.25;;;;;;;8.78;100.00;100640.81;5033807;28;20029;-84
2022/05/05 06:45:10;;;;;;;19.20;9.32;;;;;;;8.79;100.00;100647.88;5015647;28;20061;-84
2022/05/05 06:47:35;;;;;;;19.65;10.20;;;;;;;8.91;100.00;100644.16;5034135;28;20027;-85
2022/05/05 06:50:00;;;;;;;15.93;9.88;;;;;;;8.81;100.00;100646.94;5033739;28;20027;-84
2022/05/05 06:52:26;;;;;;;18.50;9.63;;;;;;;8.93;100.00;100648.53;5033590;28;20470;-83
2022/05/05 06:54:51;;;;;;;17.08;9.63;;;;;;;9.12;100.00;100645.53;5037848;22;20089;-84
2022/05/05 06:57:17;;;;;;;16.90;9.65;;;;;;;9.21;100.00;100649.81;5016087;28;20038;-86
2022/05/05 06:59:42;;;;;;;14.20;9.32;;;;;;;9.32;100.00;100648.75;5016212;28;20037;-84
2022/05/05 07:02:07;;;;;;;16.50;8.82;;;;;;;9.37;100.00;100657.53;5017472;28;20021;-83
2022/05/05 07:07:17;;;;;;;;;;;;;;;9.64;100.00;100654.38;5014970;28;20053;-87
2022/05/05 07:12:29;;;;;;;12.45;6.63;;;;;;;9.84;96.63;100657.47;5017292;28;20033;-84
2022/05/05 07:14:55;;;;;;;11.98;6.82;;;;;;;9.97;91.35;100649.22;5016635;28;20034;-84
2022/05/05 07:17:21;;;;;;;10.68;5.97;;;;;;;10.03;88.64;100658.88;5016517;28;20084;-84
2022/05/05 07:19:46;;;;;;;10.95;6.10;;;;;;;10.17;92.09;100664.81;5015143;28;20025;-84
2022/05/05 07:22:12;;;;;;;11.05;5.75;;;;;;;10.28;90.53;100669.03;5014959;28;20028;-84
2022/05/05 07:24:37;;;;;;;11.43;5.95;;;;;;;10.36;91.06;100669.69;5016192;28;20030;-83
2022/05/05 07:27:03;;;;;;;11.25;5.35;;;;;;;10.44;87.11;100673.97;5016405;28;20056;-83
2022/05/05 07:29:29;;;;;;;11.13;4.90;;;;;;;10.51;83.74;100681.00;5016513;28;20049;-84
2022/05/05 07:31:55;;;;;;;11.68;5.05;;;;;;;10.53;82.75;100679.16;5016733;28;20026;-84
2022/05/05 07:34:20;;;;;;;10.30;5.25;;;;;;;10.59;83.18;100679.00;5018110;28;20095;-84
2022/05/05 07:36:46;;;;;;;11.77;5.60;;;;;;;10.68;81.73;100679.69;5000278;28;20030;-84
2022/05/05 07:39:12;;;;;;;8.98;5.05;;;;;;;10.72;78.72;100686.75;4999877;28;20034;-83
2022/05/05 07:41:37;;;;;;;12.02;4.65;;;;;;;10.71;75.49;100688.53;4999808;28;20072;-83
2022/05/05 07:44:05;;;;;;;11.60;4.68;;;;;;;10.79;74.79;100685.66;5016483;28;20030;-84
2022/05/05 07:46:32;;;;;;;9.82;4.93;;;;;;;10.77;75.36;100684.78;5017395;28;20032;-84
2022/05/05 07:48:57;;;;;;;9.48;5.13;;;;;;;10.83;74.36;100681.09;5017288;28;20034;-84
2022/05/05 07:51:22;;;;;;;8.55;5.05;;;;;;;10.84;75.18;100683.75;5015456;28;20112;-86
2022/05/05 07:54:34;;;;;;;10.50;4.40;;;;;;;10.92;72.03;100690.69;5016761;28;20065;-86
2022/05/05 07:56:33;;;;;;;12.43;5.95;;;;;;;10.90;72.78;100687.19;5015920;28;20045;-86
2022/05/05 07:58:58;;;;;;;10.90;5.20;;;;;;;10.89;73.67;100690.78;5015525;28;20021;-86
2022/05/05 08:01:24;;;;;;;11.02;4.90;;;;;;;11.16;73.43;100682.94;5016361;28;20104;-85
2022/05/05 08:03:49;;;;;;;10.43;5.68;;;;;;;11.21;73.37;100697.06;5016049;28;20398;-84
2022/05/05 08:06:14;;;;;;;8.65;4.88;;;;;;;11.31;75.64;100691.50;5016134;28;20108;-83
2022/05/05 08:08:40;;;;;;;9.07;5.50;;;;;;;11.44;75.90;100698.25;5014594;28;20030;-84
2022/05/05 08:11:05;;;;;;;8.68;5.13;;;;;;;11.49;75.09;100695.47;5015933;28;20395;-85
2022/05/05 08:13:32;;;;;;;12.55;5.43;;;;;;;11.62;72.41;100696.88;5016518;28;20091;-83
2022/05/05 08:15:57;;;;;;;13.45;5.78;;;;;;;11.71;74.72;100693.06;5014454;28;20109;-84
2022/05/05 08:18:23;;;;;;;11.45;5.38;;;;;;;11.81;73.26;100696.34;4997301;28;20068;-86
2022/05/05 08:20:48;;;;;;;15.73;6.32;;;;;;;11.77;74.19;100704.53;5014910;28;20033;-85
2022/05/05 08:23:14;;;;;;;9.27;5.50;;;;;;;11.89;71.83;100708.63;5015357;28;20472;-85
2022/05/05 08:28:29;;;;;;;10.70;5.82;;;;;;;12.10;71.26;100712.50;5015809;28;20092;-84
2022/05/05 08:30:55;;;;;;;10.80;5.35;;;;;;;12.23;72.46;100713.03;4997743;28;20475;-84
2022/05/05 08:33:20;;;;;;;8.57;5.20;;;;;;;12.31;73.17;100710.13;5015722;28;20029;-85
2022/05/05 08:35:46;;;;;;;11.43;5.75;;;;;;;12.42;71.27;100716.97;5015460;28;20034;-84
2022/05/05 08:38:13;;;;;;;8.18;5.47;;;;;;;12.40;70.25;100708.94;4999064;28;20112;-85
2022/05/05 08:40:40;;;;;;;11.25;5.78;;;;;;;12.47;69.79;100712.34;5015062;28;20032;-86
2022/05/05 08:43:06;;;;;;;11.00;5.55;;;;;;;12.46;71.59;100718.59;5013504;28;20029;-85
2022/05/05 08:45:33;;;;;;;17.27;6.53;;;;;;;12.53;70.23;100728.19;4997652;28;20096;-86
2022/05/05 08:47:59;;;;;;;12.60;5.85;;;;;;;12.78;70.64;100719.38;5017029;28;20024;-86
2022/05/05 08:50:25;;;;;;;11.63;6.25;;;;;;;12.75;74.57;100719.50;5014804;28;20057;-85
2022/05/05 08:52:51;;;;;;;11.52;5.85;;;;;;;12.78;70.50;100714.00;4997571;28;20053;-84
2022/05/05 08:55:18;;;;;;;12.32;6.15;;;;;;;13.02;68.01;100732.00;5014043;28;20033;-85
2022/05/05 08:57:44;;;;;;;10.02;5.70;;;;;;;12.67;67.44;100724.22;5015170;28;20051;-85
2022/05/05 09:00:10;;;;;;;13.10;5.90;;;;;;;12.68;67.15;100729.50;5015297;28;20064;-85
2022/05/05 09:02:36;;;;;;;12.18;5.80;;;;;;;12.90;69.96;100727.94;5015349;28;20406;-85
2022/05/05 09:05:03;;;;;;;9.90;5.93;;;;;;;13.07;67.63;100741.66;4997726;28;20029;-85
2022/05/05 09:07:49;;;;;;;13.30;6.20;;;;;;;13.03;71.22;100734.66;5014992;28;20029;-85
2022/05/05 09:10:19;;;;;;;10.38;5.47;;;;;;;13.04;66.33;100733.72;5015420;28;20026;-86
2022/05/05 09:13:00;;;;;;;10.88;5.70;;;;;;;13.48;68.28;100729.56;5015242;28;20475;-85
2022/05/05 09:15:31;;;;;;;8.60;5.57;;;;;;;13.65;66.79;100730.81;5014812;28;20076;-85
2022/05/05 09:18:13;;;;;;;11.90;5.65;;;;;;;13.50;66.81;100732.22;5014774;28;20057;-85
2022/05/05 09:20:39;;;;;;;12.48;5.82;;;;;;;13.45;67.49;100744.91;5015249;28;20034;-84
2022/05/05 09:23:04;;;;;;;13.02;6.13;;;;;;;13.77;66.17;100742.03;4997649;28;20374;-85
2022/05/05 09:25:48;;;;;;;11.32;5.80;;;;;;;13.98;66.43;100732.31;5015622;28;20029;-87
2022/05/05 09:28:18;;;;;;;13.02;5.60;;;;;;;14.15;66.20;100736.16;4997252;28;20029;-86
2022/05/05 09:30:51;;;;;;;12.05;5.57;;;;;;;14.61;70.77;100736.19;5015028;28;20041;-86
2022/05/05 09:33:38;;;;;;;15.68;5.80;;;;;;;14.84;62.83;100734.38;4996752;28;20030;-85
2022/05/05 09:36:12;;;;;;;12.00;6.10;;;;;;;15.14;63.50;100743.09;5013353;28;20049;-84
2022/05/05 09:38:55;;;;;;;16.15;5.25;;;;;;;15.42;59.74;100744.59;5015516;28;20021;-83
2022/05/05 09:41:26;;;;;;;11.48;5.75;;;;;;;15.72;60.96;100743.34;5013059;28;20067;-84
2022/05/05 09:43:58;;;;;;;11.43;4.55;;;;;;;15.53;54.38;100750.41;4996820;28;20025;-82
2022/05/05 09:46:25;;;;;;;8.20;3.70;;;;;;;15.27;55.07;100755.09;5014249;28;20029;-82
2022/05/05 09:48:51;;;;;;;9.68;5.25;;;;;;;15.22;57.01;100749.03;4997205;28;20033;-83
2022/05/05 09:51:17;;;;;;;9.15;4.45;;;;;;;15.45;56.38;100752.53;5014338;28;20379;-83
2022/05/05 09:57:40;;;;;;;7.28;3.38;;;;;;;15.98;50.71;100754.72;5015190;28;20049;-82
2022/05/05 09:59:39;;;;;;;7.68;3.45;;;;;;;15.89;50.64;100761.41;5014286;28;20026;-82
2022/05/05 10:02:10;;;;;;;6.18;3.50;;;;;;;15.80;50.86;100765.38;5014863;28;20018;-82
2022/05/05 10:04:38;;;;;;;5.88;3.15;;;;;;;15.85;51.81;100770.53;5014041;28;20060;-84
2022/05/05 10:07:06;;;;;;;9.25;3.95;;;;;;;15.81;49.18;100766.25;4997165;28;20060;-85
2022/05/05 10:09:32;;;;;;;9.20;3.75;;;;;;;15.89;51.41;100772.19;5014367;28;20032;-85
2022/05/05 10:11:57;;;;;;;7.88;3.38;;;;;;;16.03;51.02;100763.47;5014112;28;20113;-85
2022/05/05 10:14:24;;;;;;;5.72;3.15;;;;;;;15.72;47.82;100776.47;5014365;28;20109;-84
2022/05/05 10:16:50;;;;;;;6.90;2.95;;;;;;;15.96;46.83;100768.25;4996171;28;20022;-85
2022/05/05 10:19:15;;;;;;;6.85;2.63;;;;;;;15.94;45.46;100772.84;4996941;28;20033;-86
2022/05/05 10:22:05;;;;;;;5.32;2.70;;;;;;;16.21;46.64;100768.13;5013834;28;20018;-84
2022/05/05 10:24:43;;;;;;;5.95;2.60;;;;;;;16.08;46.17;100763.31;5014142;28;20034;-84
2022/05/05 10:27:10;;;;;;;6.53;2.72;;;;;;;16.11;44.24;100771.22;5013749;28;20022;-85
2022/05/05 10:29:39;;;;;;;6.07;2.72;;;;;;;16.01;47.15;100764.47;5013624;28;20057;-84
2022/05/05 10:32:08;;;;;;;5.85;2.88;;;;;;;16.61;44.99;100768.06;5014005;28;20097;-85
2022/05/05 10:34:34;;;;;;;6.10;2.58;;;;;;;16.56;46.93;100759.31;4996787;28;20060;-84
2022/05/05 10:37:02;;;;;;;6.53;2.50;;;;;;;16.63;46.89;100766.16;5012781;28;20103;-84
2022/05/05 10:39:58;;;;;;;4.75;2.55;;;;;;;16.81;45.15;100759.00;5014408;28;20506;-86
2022/05/05 10:42:26;;;;;;;4.50;2.25;;;;;;;16.79;42.07;100760.03;5014322;28;20029;-84
2022/05/05 10:45:08;;;;;;;2.88;1.98;;;;;;;17.77;44.68;100756.94;5017424;28;20040;-85
2022/05/05 10:47:52;;;;;;;4.38;2.38;;;;;;;17.79;40.58;100754.16;5018711;28;20025;-85
2022/05/05 10:50:49;;;;;;;9.95;2.50;;;;;;;17.53;40.68;100751.88;5000532;28;20376;-85
2022/05/05 10:53:25;;;;;;;6.18;2.47;;;;;;;16.98;41.13;100755.47;5000860;28;20026;-85
2022/05/05 10:55:51;;;;;;;5.30;2.80;;;;;;;17.04;41.42;100756.09;5017324;28;20033;-85
2022/05/05 10:58:54;;;;;;;5.88;2.75;;;;;;;16.97;41.47;100764.53;5016138;28;20037;-85
2022/05/05 11:01:19;;;;;;;3.17;1.60;;;;;;;17.45;40.52;100757.69;4999847;28;20025;-85
2022/05/05 11:04:05;;;;;;;4.60;1.70;;;;;;;18.30;39.02;100766.78;5017706;28;20450;-86
2022/05/05 11:06:32;;;;;;;5.00;2.20;;;;;;;18.36;38.72;100760.16;5016054;28;20033;-84
2022/05/05 11:08:57;;;;;;;5.95;2.40;;;;;;;17.65;39.95;100763.88;5017433;28;20029;-85
2022/05/05 11:11:41;;;;;;;4.80;2.30;;;;;;;18.01;39.63;100763.81;5017518;28;20029;-86
2022/05/05 11:22:57;;;;;;;12.70;3.40;;;;;;;17.86;40.67;100764.56;5017507;28;20541;-84
2022/05/05 11:25:24;;;;;;;4.32;2.47;;;;;;;17.95;39.81;100765.91;4999876;28;20050;-83
2022/05/05 11:27:56;;;;;;;4.57;2.17;;;;;;;18.02;40.25;100762.84;5017355;28;20033;-85
2022/05/05 11:30:22;;;;;;;5.13;1.85;;;;;;;18.49;39.97;100757.66;5017003;28;20026;-86
2022/05/05 11:32:47;;;;;;;4.80;2.20;;;;;;;18.37;41.15;100756.53;5015451;28;20034;-84
2022/05/05 11:35:20;;;;;;;5.80;2.70;;;;;;;18.62;40.90;100760.53;5017259;28;20084;-84
2022/05/05 11:37:45;;;;;;;6.60;2.20;;;;;;;18.49;40.63;100757.66;5017886;28;20079;-84
2022/05/05 11:40:12;;;;;;;6.40;2.17;;;;;;;18.98;40.16;100761.22;5016838;28;20034;-82
2022/05/05 11:45:29;;;;;;;4.80;2.22;;;;;;;19.31;39.61;100760.22;5017471;28;20032;-83
2022/05/05 11:47:55;;;;;;;3.75;1.80;;;;;;;19.37;40.68;100758.09;5017074;28;20026;-82
2022/05/05 11:50:20;;;;;;;7.03;2.90;;;;;;;18.82;41.50;100762.09;5016988;28;20096;-82
2022/05/05 11:52:46;;;;;;;5.25;2.25;;;;;;;18.90;41.54;100756.25;5017804;28;20021;-83
2022/05/05 11:55:13;;;;;;;6.60;3.10;;;;;;;19.18;41.38;100760.06;5016493;28;20057;-83